sensor_id;sensor_type;location;lat;lon;timestamp;temperature;humidity
37896;DHT22;23733;53.254;10.430;2022-11-20T00:01:19;1.20;99.90
37896;DHT22;23733;53.254;10.430;2022-11-20T00:03:46;1.20;99.90
37896;DHT22;23733;53.254;10.430;2022-11-20T00:06:16;1.20;99.90
37896;DHT22;23733;53.254;10.430;2022-11-20T00:08:42;1.20;99.90
37896;DHT22;23733;53.254;10.430;2022-11-20T00:11:10;1.20;99.90
37896;DHT22;23733;53.254;10.430;2022-11-20T00:13:36;1.20;99.90
37896;DHT22;23733;53.254;10.430;2022-11-20T00:16:04;1.20;99.90
37896;DHT22;23733;53.254;10.430;2022-11-20T00:18:32;1.20;99.90
37896;DHT22;23733;53.254;10.430;2022-11-20T00:21:11;1.20;99.90
37896;DHT22;23733;53.254;10.430;2022-11-20T00:23:37;1.20;99.90
37896;DHT22;23733;53.254;10.430;2022-11-20T00:26:05;1.20;99.90
37896;DHT22;23733;53.254;10.430;2022-11-20T00:28:31;1.20;99.90
37896;DHT22;23733;53.254;10.430;2022-11-20T00:31:09;1.20;99.90
37896;DHT22;23733;53.254;10.430;2022-11-20T00:33:35;1.20;99.90
37896;DHT22;23733;53.254;10.430;2022-11-20T00:36:03;1.10;99.90
37896;DHT22;23733;53.254;10.430;2022-11-20T00:38:30;1.20;99.90
37896;DHT22;23733;53.254;10.430;2022-11-20T00:40:58;1.20;99.90
37896;DHT22;23733;53.254;10.430;2022-11-20T00:43:24;1.10;99.90
37896;DHT22;23733;53.254;10.430;2022-11-20T00:45:59;1.10;99.90
37896;DHT22;23733;53.254;10.430;2022-11-20T00:48:25;1.10;99.90
37896;DHT22;23733;53.254;10.430;2022-11-20T00:50:52;1.10;99.90
37896;DHT22;23733;53.254;10.430;2022-11-20T00:53:18;1.10;99.90
37896;DHT22;23733;53.254;10.430;2022-11-20T00:56:05;1.10;99.90
37896;DHT22;23733;53.254;10.430;2022-11-20T00:58:34;1.10;99.90
37896;DHT22;23733;53.254;10.430;2022-11-20T01:01:03;1.10;99.90
37896;DHT22;23733;53.254;10.430;2022-11-20T01:03:31;1.00;99.90
37896;DHT22;23733;53.254;10.430;2022-11-20T01:06:05;1.00;99.90
37896;DHT22;23733;53.254;10.430;2022-11-20T01:08:33;1.10;99.90
37896;DHT22;23733;53.254;10.430;2022-11-20T01:11:07;1.00;99.90
37896;DHT22;23733;53.254;10.430;2022-11-20T01:13:34;1.10;99.90
37896;DHT22;23733;53.254;10.430;2022-11-20T01:16:14;1.10;99.90
37896;DHT22;23733;53.254;10.430;2022-11-20T01:18:43;1.00;99.90
37896;DHT22;23733;53.254;10.430;2022-11-20T01:21:18;1.00;99.90
37896;DHT22;23733;53.254;10.430;2022-11-20T01:23:45;1.00;99.90
37896;DHT22;23733;53.254;10.430;2022-11-20T01:26:15;1.00;99.90
37896;DHT22;23733;53.254;10.430;2022-11-20T01:28:42;1.00;99.90
37896;DHT22;23733;53.254;10.430;2022-11-20T01:31:21;1.00;99.90
37896;DHT22;23733;53.254;10.430;2022-11-20T01:33:49;1.00;99.90
37896;DHT22;23733;53.254;10.430;2022-11-20T01:36:16;1.00;99.90
37896;DHT22;23733;53.254;10.430;2022-11-20T01:38:42;1.00;99.90
37896;DHT22;23733;53.254;10.430;2022-11-20T01:41:09;1.00;99.90
37896;DHT22;23733;53.254;10.430;2022-11-20T01:43:35;1.00;99.90
37896;DHT22;23733;53.254;10.430;2022-11-20T01:46:12;1.00;99.90
37896;DHT22;23733;53.254;10.430;2022-11-20T01:51:17;1.00;99.90
37896;DHT22;23733;53.254;10.430;2022-11-20T01:53:45;1.00;99.90
37896;DHT22;23733;53.254;10.430;2022-11-20T01:56:12;1.00;99.90
37896;DHT22;23733;53.254;10.430;2022-11-20T01:58:44;0.90;99.90
37896;DHT22;23733;53.254;10.430;2022-11-20T02:01:13;0.90;99.90
37896;DHT22;23733;53.254;10.430;2022-11-20T02:03:40;0.90;99.90
37896;DHT22;23733;53.254;10.430;2022-11-20T02:06:35;1.00;99.90
37896;DHT22;23733;53.254;10.430;2022-11-20T02:09:01;1.00;99.90
37896;DHT22;23733;53.254;10.430;2022-11-20T02:11:27;1.00;99.90
37896;DHT22;23733;53.254;10.430;2022-11-20T02:13:55;1.00;99.90
37896;DHT22;23733;53.254;10.430;2022-11-20T02:16:31;0.90;99.90
37896;DHT22;23733;53.254;10.430;2022-11-20T02:19:00;0.90;99.90
37896;DHT22;23733;53.254;10.430;2022-11-20T02:21:46;0.90;99.90
37896;DHT22;23733;53.254;10.430;2022-11-20T02:24:15;0.90;99.90
37896;DHT22;23733;53.254;10.430;2022-11-20T02:26:57;0.90;99.90
37896;DHT22;23733;53.254;10.430;2022-11-20T02:29:51;0.90;99.90
37896;DHT22;23733;53.254;10.430;2022-11-20T02:32:27;0.90;99.90
37896;DHT22;23733;53.254;10.430;2022-11-20T02:34:53;0.90;99.90
37896;DHT22;23733;53.254;10.430;2022-11-20T02:37:20;1.00;99.90
37896;DHT22;23733;53.254;10.430;2022-11-20T02:39:47;0.90;99.90
37896;DHT22;23733;53.254;10.430;2022-11-20T02:42:15;0.90;99.90
37896;DHT22;23733;53.254;10.430;2022-11-20T02:44:41;0.90;99.90
37896;DHT22;23733;53.254;10.430;2022-11-20T02:47:07;0.90;99.90
37896;DHT22;23733;53.254;10.430;2022-11-20T02:49:33;0.90;99.90
37896;DHT22;23733;53.254;10.430;2022-11-20T02:51:59;0.90;99.90
37896;DHT22;23733;53.254;10.430;2022-11-20T02:54:25;0.80;99.90
37896;DHT22;23733;53.254;10.430;2022-11-20T02:56:51;0.90;99.90
37896;DHT22;23733;53.254;10.430;2022-11-20T02:59:17;0.90;99.90
37896;DHT22;23733;53.254;10.430;2022-11-20T03:01:43;0.80;99.90
37896;DHT22;23733;53.254;10.430;2022-11-20T03:04:09;0.80;99.90
37896;DHT22;23733;53.254;10.430;2022-11-20T03:06:35;0.80;99.90
37896;DHT22;23733;53.254;10.430;2022-11-20T03:09:01;0.80;99.90
37896;DHT22;23733;53.254;10.430;2022-11-20T03:11:28;0.80;99.90
37896;DHT22;23733;53.254;10.430;2022-11-20T03:13:54;0.80;99.90
37896;DHT22;23733;53.254;10.430;2022-11-20T03:16:22;0.80;99.90
37896;DHT22;23733;53.254;10.430;2022-11-20T03:18:49;0.80;99.90
37896;DHT22;23733;53.254;10.430;2022-11-20T03:21:15;0.80;99.90
37896;DHT22;23733;53.254;10.430;2022-11-20T03:23:41;0.80;99.90
37896;DHT22;23733;53.254;10.430;2022-11-20T03:26:22;0.80;99.90
37896;DHT22;23733;53.254;10.430;2022-11-20T03:28:51;0.80;99.90
37896;DHT22;23733;53.254;10.430;2022-11-20T03:31:20;0.70;99.90
37896;DHT22;23733;53.254;10.430;2022-11-20T03:33:46;0.80;99.90
37896;DHT22;23733;53.254;10.430;2022-11-20T03:36:14;0.70;99.90
37896;DHT22;23733;53.254;10.430;2022-11-20T03:38:41;0.80;99.90
37896;DHT22;23733;53.254;10.430;2022-11-20T03:41:12;0.80;99.90
37896;DHT22;23733;53.254;10.430;2022-11-20T03:43:39;0.80;99.90
37896;DHT22;23733;53.254;10.430;2022-11-20T03:46:06;0.80;99.90
37896;DHT22;23733;53.254;10.430;2022-11-20T03:48:32;0.80;99.90
37896;DHT22;23733;53.254;10.430;2022-11-20T03:51:22;0.80;99.90
37896;DHT22;23733;53.254;10.430;2022-11-20T03:53:49;0.80;99.90
37896;DHT22;23733;53.254;10.430;2022-11-20T03:56:18;0.80;99.90
37896;DHT22;23733;53.254;10.430;2022-11-20T03:58:45;0.80;99.90
37896;DHT22;23733;53.254;10.430;2022-11-20T04:01:14;0.80;99.90
37896;DHT22;23733;53.254;10.430;2022-11-20T04:03:41;0.80;99.90
37896;DHT22;23733;53.254;10.430;2022-11-20T04:06:26;0.80;99.90
37896;DHT22;23733;53.254;10.430;2022-11-20T04:08:55;0.80;99.90
37896;DHT22;23733;53.254;10.430;2022-11-20T04:11:23;0.80;99.90
37896;DHT22;23733;53.254;10.430;2022-11-20T04:13:54;0.80;99.90
37896;DHT22;23733;53.254;10.430;2022-11-20T04:16:21;0.80;99.90
37896;DHT22;23733;53.254;10.430;2022-11-20T04:18:54;0.80;99.90
37896;DHT22;23733;53.254;10.430;2022-11-20T04:21:21;0.80;99.90
37896;DHT22;23733;53.254;10.430;2022-11-20T04:23:48;0.80;99.90
37896;DHT22;23733;53.254;10.430;2022-11-20T04:26:15;0.80;99.90
37896;DHT22;23733;53.254;10.430;2022-11-20T04:28:41;0.80;99.90
37896;DHT22;23733;53.254;10.430;2022-11-20T04:31:14;0.80;99.90
37896;DHT22;23733;53.254;10.430;2022-11-20T04:33:40;0.70;99.90
37896;DHT22;23733;53.254;10.430;2022-11-20T04:36:18;0.70;99.90
37896;DHT22;23733;53.254;10.430;2022-11-20T04:38:45;0.70;99.90
37896;DHT22;23733;53.254;10.430;2022-11-20T04:41:19;0.80;99.90
37896;DHT22;23733;53.254;10.430;2022-11-20T04:43:46;0.80;99.90
37896;DHT22;23733;53.254;10.430;2022-11-20T04:46:13;0.70;99.90
37896;DHT22;23733;53.254;10.430;2022-11-20T04:48:39;0.80;99.90
37896;DHT22;23733;53.254;10.430;2022-11-20T04:51:05;0.70;99.90
37896;DHT22;23733;53.254;10.430;2022-11-20T04:53:32;0.70;99.90
37896;DHT22;23733;53.254;10.430;2022-11-20T04:56:04;0.80;99.90
37896;DHT22;23733;53.254;10.430;2022-11-20T04:58:31;0.80;99.90
37896;DHT22;23733;53.254;10.430;2022-11-20T05:01:11;0.80;99.90
37896;DHT22;23733;53.254;10.430;2022-11-20T05:03:38;0.70;99.90
37896;DHT22;23733;53.254;10.430;2022-11-20T05:06:06;0.80;99.90
37896;DHT22;23733;53.254;10.430;2022-11-20T05:08:32;0.80;99.90
37896;DHT22;23733;53.254;10.430;2022-11-20T05:11:13;0.80;99.90
37896;DHT22;23733;53.254;10.430;2022-11-20T05:13:40;0.70;99.90
37896;DHT22;23733;53.254;10.430;2022-11-20T05:16:14;0.80;99.90
37896;DHT22;23733;53.254;10.430;2022-11-20T05:18:40;0.80;99.90
37896;DHT22;23733;53.254;10.430;2022-11-20T05:21:07;0.80;99.90
37896;DHT22;23733;53.254;10.430;2022-11-20T05:23:34;0.70;99.90
37896;DHT22;23733;53.254;10.430;2022-11-20T05:26:00;0.70;99.90
37896;DHT22;23733;53.254;10.430;2022-11-20T05:28:28;0.70;99.90
37896;DHT22;23733;53.254;10.430;2022-11-20T05:30:55;0.70;99.90
37896;DHT22;23733;53.254;10.430;2022-11-20T05:33:21;0.70;99.90
37896;DHT22;23733;53.254;10.430;2022-11-20T05:35:47;0.70;99.90
37896;DHT22;23733;53.254;10.430;2022-11-20T05:38:14;0.70;99.90
37896;DHT22;23733;53.254;10.430;2022-11-20T05:40:40;0.70;99.90
37896;DHT22;23733;53.254;10.430;2022-11-20T05:43:06;0.80;99.90
37896;DHT22;23733;53.254;10.430;2022-11-20T05:45:32;0.70;99.90
37896;DHT22;23733;53.254;10.430;2022-11-20T05:47:59;0.80;99.90
37896;DHT22;23733;53.254;10.430;2022-11-20T05:50:27;0.70;99.90
37896;DHT22;23733;53.254;10.430;2022-11-20T05:52:53;0.80;99.90
37896;DHT22;23733;53.254;10.430;2022-11-20T05:55:19;0.80;99.90
37896;DHT22;23733;53.254;10.430;2022-11-20T05:57:45;0.70;99.90
37896;DHT22;23733;53.254;10.430;2022-11-20T06:00:12;0.80;99.90
37896;DHT22;23733;53.254;10.430;2022-11-20T06:02:38;0.80;99.90
37896;DHT22;23733;53.254;10.430;2022-11-20T06:05:04;0.80;99.90
37896;DHT22;23733;53.254;10.430;2022-11-20T06:07:30;0.70;99.90
37896;DHT22;23733;53.254;10.430;2022-11-20T06:09:56;0.80;99.90
37896;DHT22;23733;53.254;10.430;2022-11-20T06:12:22;0.80;99.90
37896;DHT22;23733;53.254;10.430;2022-11-20T06:14:48;0.80;99.90
37896;DHT22;23733;53.254;10.430;2022-11-20T06:17:14;0.70;99.90
37896;DHT22;23733;53.254;10.430;2022-11-20T06:19:40;0.70;99.90
37896;DHT22;23733;53.254;10.430;2022-11-20T06:22:06;0.70;99.90
37896;DHT22;23733;53.254;10.430;2022-11-20T06:24:32;0.70;99.90
37896;DHT22;23733;53.254;10.430;2022-11-20T06:26:58;0.70;99.90
37896;DHT22;23733;53.254;10.430;2022-11-20T06:29:24;0.70;99.90
37896;DHT22;23733;53.254;10.430;2022-11-20T06:31:50;0.70;99.90
37896;DHT22;23733;53.254;10.430;2022-11-20T06:34:16;0.70;99.90
37896;DHT22;23733;53.254;10.430;2022-11-20T06:36:42;0.70;99.90
37896;DHT22;23733;53.254;10.430;2022-11-20T06:39:08;0.70;99.90
37896;DHT22;23733;53.254;10.430;2022-11-20T06:41:34;0.60;99.90
37896;DHT22;23733;53.254;10.430;2022-11-20T06:44:00;0.70;99.90
37896;DHT22;23733;53.254;10.430;2022-11-20T06:46:26;0.70;99.90
37896;DHT22;23733;53.254;10.430;2022-11-20T06:48:52;0.70;99.90
37896;DHT22;23733;53.254;10.430;2022-11-20T06:51:18;0.60;99.90
37896;DHT22;23733;53.254;10.430;2022-11-20T06:53:45;0.70;99.90
37896;DHT22;23733;53.254;10.430;2022-11-20T06:56:11;0.70;99.90
37896;DHT22;23733;53.254;10.430;2022-11-20T06:58:37;0.70;99.90
37896;DHT22;23733;53.254;10.430;2022-11-20T07:01:06;0.70;99.90
37896;DHT22;23733;53.254;10.430;2022-11-20T07:03:32;0.70;99.90
37896;DHT22;23733;53.254;10.430;2022-11-20T07:06:00;0.60;99.90
37896;DHT22;23733;53.254;10.430;2022-11-20T07:08:26;0.70;99.90
37896;DHT22;23733;53.254;10.430;2022-11-20T07:10:52;0.70;99.90
37896;DHT22;23733;53.254;10.430;2022-11-20T07:13:18;0.60;99.90
37896;DHT22;23733;53.254;10.430;2022-11-20T07:15:44;0.60;99.90
37896;DHT22;23733;53.254;10.430;2022-11-20T07:18:10;0.70;99.90
37896;DHT22;23733;53.254;10.430;2022-11-20T07:20:36;0.60;99.90
37896;DHT22;23733;53.254;10.430;2022-11-20T07:23:02;0.60;99.90
37896;DHT22;23733;53.254;10.430;2022-11-20T07:25:28;0.60;99.90
37896;DHT22;23733;53.254;10.430;2022-11-20T07:28:00;0.60;99.90
37896;DHT22;23733;53.254;10.430;2022-11-20T07:30:27;0.70;99.90
37896;DHT22;23733;53.254;10.430;2022-11-20T07:32:54;0.70;99.90
37896;DHT22;23733;53.254;10.430;2022-11-20T07:35:21;0.60;99.90
37896;DHT22;23733;53.254;10.430;2022-11-20T07:37:47;0.60;99.90
37896;DHT22;23733;53.254;10.430;2022-11-20T07:40:15;0.60;99.90
37896;DHT22;23733;53.254;10.430;2022-11-20T07:42:54;0.60;99.90
37896;DHT22;23733;53.254;10.430;2022-11-20T07:45:22;0.60;99.90
37896;DHT22;23733;53.254;10.430;2022-11-20T07:47:49;0.60;99.90
37896;DHT22;23733;53.254;10.430;2022-11-20T07:50:16;0.60;99.90
37896;DHT22;23733;53.254;10.430;2022-11-20T07:52:42;0.60;99.90
37896;DHT22;23733;53.254;10.430;2022-11-20T07:55:09;0.60;99.90
37896;DHT22;23733;53.254;10.430;2022-11-20T07:57:35;0.70;99.90
37896;DHT22;23733;53.254;10.430;2022-11-20T08:00:03;0.70;99.90
37896;DHT22;23733;53.254;10.430;2022-11-20T08:02:29;0.70;99.90
37896;DHT22;23733;53.254;10.430;2022-11-20T08:04:55;0.70;99.90
37896;DHT22;23733;53.254;10.430;2022-11-20T08:07:21;0.80;99.90
37896;DHT22;23733;53.254;10.430;2022-11-20T08:09:47;0.80;99.90
37896;DHT22;23733;53.254;10.430;2022-11-20T08:12:20;0.80;99.90
37896;DHT22;23733;53.254;10.430;2022-11-20T08:15:05;0.80;99.90
37896;DHT22;23733;53.254;10.430;2022-11-20T08:17:31;0.70;99.90
37896;DHT22;23733;53.254;10.430;2022-11-20T08:19:57;0.80;99.90
37896;DHT22;23733;53.254;10.430;2022-11-20T08:22:24;0.80;99.90
37896;DHT22;23733;53.254;10.430;2022-11-20T08:24:50;0.80;99.90
37896;DHT22;23733;53.254;10.430;2022-11-20T08:27:16;0.80;99.90
37896;DHT22;23733;53.254;10.430;2022-11-20T08:29:42;0.80;99.90
37896;DHT22;23733;53.254;10.430;2022-11-20T08:32:08;0.80;99.90
37896;DHT22;23733;53.254;10.430;2022-11-20T08:34:34;0.80;99.90
37896;DHT22;23733;53.254;10.430;2022-11-20T08:37:02;0.90;99.90
37896;DHT22;23733;53.254;10.430;2022-11-20T08:39:28;0.90;99.90
37896;DHT22;23733;53.254;10.430;2022-11-20T08:41:54;0.90;99.90
37896;DHT22;23733;53.254;10.430;2022-11-20T08:44:20;0.90;99.90
37896;DHT22;23733;53.254;10.430;2022-11-20T08:46:46;0.90;99.90
37896;DHT22;23733;53.254;10.430;2022-11-20T08:49:13;0.90;99.90
37896;DHT22;23733;53.254;10.430;2022-11-20T08:51:40;1.00;99.90
37896;DHT22;23733;53.254;10.430;2022-11-20T08:54:07;1.00;99.90
37896;DHT22;23733;53.254;10.430;2022-11-20T08:56:33;1.00;99.90
37896;DHT22;23733;53.254;10.430;2022-11-20T08:58:59;1.00;99.90
37896;DHT22;23733;53.254;10.430;2022-11-20T09:01:25;1.10;99.90
37896;DHT22;23733;53.254;10.430;2022-11-20T09:03:52;1.10;99.90
37896;DHT22;23733;53.254;10.430;2022-11-20T09:06:18;1.10;99.90
37896;DHT22;23733;53.254;10.430;2022-11-20T09:08:44;1.10;99.90
37896;DHT22;23733;53.254;10.430;2022-11-20T09:11:10;1.20;99.90
37896;DHT22;23733;53.254;10.430;2022-11-20T09:13:37;1.20;99.90
37896;DHT22;23733;53.254;10.430;2022-11-20T09:16:08;1.30;99.90
37896;DHT22;23733;53.254;10.430;2022-11-20T09:18:35;1.30;99.90
37896;DHT22;23733;53.254;10.430;2022-11-20T09:21:06;1.30;99.90
37896;DHT22;23733;53.254;10.430;2022-11-20T09:23:34;1.30;99.90
37896;DHT22;23733;53.254;10.430;2022-11-20T09:26:09;1.40;99.90
37896;DHT22;23733;53.254;10.430;2022-11-20T09:28:35;1.40;99.90
37896;DHT22;23733;53.254;10.430;2022-11-20T09:31:08;1.40;99.90
37896;DHT22;23733;53.254;10.430;2022-11-20T09:33:35;1.40;99.90
37896;DHT22;23733;53.254;10.430;2022-11-20T09:36:01;1.40;99.90
37896;DHT22;23733;53.254;10.430;2022-11-20T09:38:27;1.50;99.90
37896;DHT22;23733;53.254;10.430;2022-11-20T09:40:58;1.40;99.90
37896;DHT22;23733;53.254;10.430;2022-11-20T09:43:49;1.50;99.90
37896;DHT22;23733;53.254;10.430;2022-11-20T09:46:40;1.50;99.90
37896;DHT22;23733;53.254;10.430;2022-11-20T09:49:38;1.50;99.90
37896;DHT22;23733;53.254;10.430;2022-11-20T09:55:12;1.40;99.90
37896;DHT22;23733;53.254;10.430;2022-11-20T09:57:48;1.40;99.90
37896;DHT22;23733;53.254;10.430;2022-11-20T10:00:17;1.40;99.90
37896;DHT22;23733;53.254;10.430;2022-11-20T10:02:54;1.40;99.90
37896;DHT22;23733;53.254;10.430;2022-11-20T10:05:27;1.40;99.90
37896;DHT22;23733;53.254;10.430;2022-11-20T10:10:44;1.50;99.90
37896;DHT22;23733;53.254;10.430;2022-11-20T10:22:10;1.80;99.90
37896;DHT22;23733;53.254;10.430;2022-11-20T10:24:44;1.80;99.90
37896;DHT22;23733;53.254;10.430;2022-11-20T10:30:09;1.90;99.90
37896;DHT22;23733;53.254;10.430;2022-11-20T10:32:39;1.80;99.90
37896;DHT22;23733;53.254;10.430;2022-11-20T10:35:28;1.90;99.90
37896;DHT22;23733;53.254;10.430;2022-11-20T10:38:05;1.90;99.90
37896;DHT22;23733;53.254;10.430;2022-11-20T10:40:40;1.90;99.90
37896;DHT22;23733;53.254;10.430;2022-11-20T10:43:13;1.90;99.90
37896;DHT22;23733;53.254;10.430;2022-11-20T10:45:49;1.90;99.90
37896;DHT22;23733;53.254;10.430;2022-11-20T10:48:24;1.90;99.90
37896;DHT22;23733;53.254;10.430;2022-11-20T10:51:07;1.90;99.90
37896;DHT22;23733;53.254;10.430;2022-11-20T10:56:38;2.00;99.90
37896;DHT22;23733;53.254;10.430;2022-11-20T10:59:29;2.00;99.90
37896;DHT22;23733;53.254;10.430;2022-11-20T11:01:58;1.90;99.90
37896;DHT22;23733;53.254;10.430;2022-11-20T11:04:35;1.90;99.90
37896;DHT22;23733;53.254;10.430;2022-11-20T11:07:14;1.90;99.90
37896;DHT22;23733;53.254;10.430;2022-11-20T11:09:52;1.90;99.90
37896;DHT22;23733;53.254;10.430;2022-11-20T11:12:27;2.00;99.90
37896;DHT22;23733;53.254;10.430;2022-11-20T11:14:55;2.00;99.90
37896;DHT22;23733;53.254;10.430;2022-11-20T11:17:28;2.00;99.90
37896;DHT22;23733;53.254;10.430;2022-11-20T11:19:58;1.90;99.90
37896;DHT22;23733;53.254;10.430;2022-11-20T11:22:25;1.90;99.90
37896;DHT22;23733;53.254;10.430;2022-11-20T11:24:54;1.90;99.90
37896;DHT22;23733;53.254;10.430;2022-11-20T11:27:20;1.90;99.90
37896;DHT22;23733;53.254;10.430;2022-11-20T11:29:46;2.00;99.90
37896;DHT22;23733;53.254;10.430;2022-11-20T11:32:20;2.10;99.90
37896;DHT22;23733;53.254;10.430;2022-11-20T11:35:18;2.10;99.90
37896;DHT22;23733;53.254;10.430;2022-11-20T11:37:45;2.10;99.90
37896;DHT22;23733;53.254;10.430;2022-11-20T11:40:13;2.10;99.90
37896;DHT22;23733;53.254;10.430;2022-11-20T11:43:06;2.20;99.90
37896;DHT22;23733;53.254;10.430;2022-11-20T11:45:54;2.20;99.90
37896;DHT22;23733;53.254;10.430;2022-11-20T11:48:21;2.20;99.90
37896;DHT22;23733;53.254;10.430;2022-11-20T11:50:50;2.20;99.90
37896;DHT22;23733;53.254;10.430;2022-11-20T11:53:22;2.20;99.90
37896;DHT22;23733;53.254;10.430;2022-11-20T11:56:08;2.30;99.90
37896;DHT22;23733;53.254;10.430;2022-11-20T12:01:22;2.30;99.90
37896;DHT22;23733;53.254;10.430;2022-11-20T12:04:24;2.30;99.90
37896;DHT22;23733;53.254;10.430;2022-11-20T12:07:19;2.30;99.90
37896;DHT22;23733;53.254;10.430;2022-11-20T12:09:49;2.20;99.90
37896;DHT22;23733;53.254;10.430;2022-11-20T12:12:20;2.30;99.90
37896;DHT22;23733;53.254;10.430;2022-11-20T12:14:49;2.30;99.90
37896;DHT22;23733;53.254;10.430;2022-11-20T12:17:18;2.30;99.90
37896;DHT22;23733;53.254;10.430;2022-11-20T12:19:44;2.30;99.90
37896;DHT22;23733;53.254;10.430;2022-11-20T12:22:35;2.30;99.90
37896;DHT22;23733;53.254;10.430;2022-11-20T12:25:20;2.30;99.90
37896;DHT22;23733;53.254;10.430;2022-11-20T12:33:55;2.40;99.90
37896;DHT22;23733;53.254;10.430;2022-11-20T12:36:56;2.40;99.90
37896;DHT22;23733;53.254;10.430;2022-11-20T12:39:34;2.40;99.90
37896;DHT22;23733;53.254;10.430;2022-11-20T12:45:27;2.30;99.90
37896;DHT22;23733;53.254;10.430;2022-11-20T12:53:31;2.30;99.90
37896;DHT22;23733;53.254;10.430;2022-11-20T12:56:21;2.20;99.90
37896;DHT22;23733;53.254;10.430;2022-11-20T12:59:27;2.20;99.90
37896;DHT22;23733;53.254;10.430;2022-11-20T13:02:18;2.20;99.90
37896;DHT22;23733;53.254;10.430;2022-11-20T13:05:15;2.10;99.90
37896;DHT22;23733;53.254;10.430;2022-11-20T13:07:43;2.10;99.90
37896;DHT22;23733;53.254;10.430;2022-11-20T13:10:23;2.10;99.90
37896;DHT22;23733;53.254;10.430;2022-11-20T13:13:05;2.10;99.90
37896;DHT22;23733;53.254;10.430;2022-11-20T13:15:48;2.00;99.90
37896;DHT22;23733;53.254;10.430;2022-11-20T13:18:17;2.00;99.90
37896;DHT22;23733;53.254;10.430;2022-11-20T13:20:44;2.00;99.90
37896;DHT22;23733;53.254;10.430;2022-11-20T13:23:10;1.90;99.90
37896;DHT22;23733;53.254;10.430;2022-11-20T13:25:40;1.90;99.90
37896;DHT22;23733;53.254;10.430;2022-11-20T13:30:36;2.00;99.90
37896;DHT22;23733;53.254;10.430;2022-11-20T13:33:21;1.90;99.90
37896;DHT22;23733;53.254;10.430;2022-11-20T13:36:03;2.00;99.90
37896;DHT22;23733;53.254;10.430;2022-11-20T13:38:45;2.00;99.90
37896;DHT22;23733;53.254;10.430;2022-11-20T13:41:24;2.00;99.90
37896;DHT22;23733;53.254;10.430;2022-11-20T13:44:23;2.10;99.90
37896;DHT22;23733;53.254;10.430;2022-11-20T13:46:50;2.10;99.90
37896;DHT22;23733;53.254;10.430;2022-11-20T13:49:32;2.10;99.90
37896;DHT22;23733;53.254;10.430;2022-11-20T13:54:57;2.10;99.90
37896;DHT22;23733;53.254;10.430;2022-11-20T13:57:48;2.10;99.90
37896;DHT22;23733;53.254;10.430;2022-11-20T14:00:22;2.10;99.90
37896;DHT22;23733;53.254;10.430;2022-11-20T14:03:11;2.10;99.90
37896;DHT22;23733;53.254;10.430;2022-11-20T14:05:50;2.10;99.90
37896;DHT22;23733;53.254;10.430;2022-11-20T14:08:26;2.10;99.90
37896;DHT22;23733;53.254;10.430;2022-11-20T14:11:06;2.10;99.90
37896;DHT22;23733;53.254;10.430;2022-11-20T14:13:38;2.10;99.90
37896;DHT22;23733;53.254;10.430;2022-11-20T14:16:04;2.10;99.90
37896;DHT22;23733;53.254;10.430;2022-11-20T14:18:30;2.10;99.90
37896;DHT22;23733;53.254;10.430;2022-11-20T14:21:00;2.00;99.90
37896;DHT22;23733;53.254;10.430;2022-11-20T14:23:28;2.00;99.90
37896;DHT22;23733;53.254;10.430;2022-11-20T14:25:55;2.00;99.90
37896;DHT22;23733;53.254;10.430;2022-11-20T14:28:26;2.00;99.90
37896;DHT22;23733;53.254;10.430;2022-11-20T14:30:54;2.00;99.90
37896;DHT22;23733;53.254;10.430;2022-11-20T14:33:21;1.90;99.90
37896;DHT22;23733;53.254;10.430;2022-11-20T14:35:55;1.90;99.90
37896;DHT22;23733;53.254;10.430;2022-11-20T14:38:25;1.90;99.90
37896;DHT22;23733;53.254;10.430;2022-11-20T14:40:52;1.90;99.90
37896;DHT22;23733;53.254;10.430;2022-11-20T14:43:25;1.90;99.90
37896;DHT22;23733;53.254;10.430;2022-11-20T14:45:59;1.90;99.90
37896;DHT22;23733;53.254;10.430;2022-11-20T14:48:38;1.90;99.90
37896;DHT22;23733;53.254;10.430;2022-11-20T14:51:05;1.90;99.90
37896;DHT22;23733;53.254;10.430;2022-11-20T14:53:31;1.90;99.90
37896;DHT22;23733;53.254;10.430;2022-11-20T14:56:01;1.90;99.90
37896;DHT22;23733;53.254;10.430;2022-11-20T14:58:30;1.90;99.90
37896;DHT22;23733;53.254;10.430;2022-11-20T15:01:00;1.90;99.90
37896;DHT22;23733;53.254;10.430;2022-11-20T15:38:31;1.90;99.90
37896;DHT22;23733;53.254;10.430;2022-11-20T15:40:57;1.80;99.90
37896;DHT22;23733;53.254;10.430;2022-11-20T15:43:23;1.70;99.90
37896;DHT22;23733;53.254;10.430;2022-11-20T15:45:53;1.70;99.90
37896;DHT22;23733;53.254;10.430;2022-11-20T15:48:38;1.70;99.90
37896;DHT22;23733;53.254;10.430;2022-11-20T15:53:41;1.70;99.90
37896;DHT22;23733;53.254;10.430;2022-11-20T15:56:14;1.70;99.90
37896;DHT22;23733;53.254;10.430;2022-11-20T15:58:40;1.70;99.90
37896;DHT22;23733;53.254;10.430;2022-11-20T16:01:15;1.70;99.90
37896;DHT22;23733;53.254;10.430;2022-11-20T16:03:41;1.60;99.90
37896;DHT22;23733;53.254;10.430;2022-11-20T16:06:07;1.60;99.90
37896;DHT22;23733;53.254;10.430;2022-11-20T16:08:33;1.60;99.90
37896;DHT22;23733;53.254;10.430;2022-11-20T16:11:00;1.60;99.90
37896;DHT22;23733;53.254;10.430;2022-11-20T16:13:26;1.60;99.90
37896;DHT22;23733;53.254;10.430;2022-11-20T16:16:26;1.60;99.90
37896;DHT22;23733;53.254;10.430;2022-11-20T16:18:54;1.60;99.90
37896;DHT22;23733;53.254;10.430;2022-11-20T16:21:20;1.60;99.90
37896;DHT22;23733;53.254;10.430;2022-11-20T16:23:46;1.60;99.90
37896;DHT22;23733;53.254;10.430;2022-11-20T16:26:17;1.50;99.90
37896;DHT22;23733;53.254;10.430;2022-11-20T16:28:44;1.50;99.90
37896;DHT22;23733;53.254;10.430;2022-11-20T16:31:15;1.50;99.90
37896;DHT22;23733;53.254;10.430;2022-11-20T16:33:42;1.60;99.90
37896;DHT22;23733;53.254;10.430;2022-11-20T16:36:13;1.50;99.90
37896;DHT22;23733;53.254;10.430;2022-11-20T16:38:40;1.60;99.90
37896;DHT22;23733;53.254;10.430;2022-11-20T16:41:06;1.60;99.90
37896;DHT22;23733;53.254;10.430;2022-11-20T17:23:20;1.60;99.90
37896;DHT22;23733;53.254;10.430;2022-11-20T17:25:46;1.40;99.90
37896;DHT22;23733;53.254;10.430;2022-11-20T17:28:12;1.40;99.90
37896;DHT22;23733;53.254;10.430;2022-11-20T17:30:37;1.40;99.90
37896;DHT22;23733;53.254;10.430;2022-11-20T17:33:03;1.40;99.90
37896;DHT22;23733;53.254;10.430;2022-11-20T17:35:30;1.30;99.90
37896;DHT22;23733;53.254;10.430;2022-11-20T17:37:56;1.30;99.90
37896;DHT22;23733;53.254;10.430;2022-11-20T17:40:22;1.30;99.90
37896;DHT22;23733;53.254;10.430;2022-11-20T17:42:49;1.30;99.90
37896;DHT22;23733;53.254;10.430;2022-11-20T17:45:15;1.30;99.90
37896;DHT22;23733;53.254;10.430;2022-11-20T17:47:41;1.30;99.90
37896;DHT22;23733;53.254;10.430;2022-11-20T17:50:09;1.20;99.90
37896;DHT22;23733;53.254;10.430;2022-11-20T17:52:35;1.20;99.90
37896;DHT22;23733;53.254;10.430;2022-11-20T17:55:01;1.20;99.90